Ponte Alta do Norte, Brazil
Current Conditions -  °F | °C
As of 1:00 PM on Monday 24 Nov 2014 (Local Time) from SBNF Reporting Station
Scattered Clouds Scattered Clouds  
Wind Chill: 79°   Ceiling: Unl
Heat Index: 82°   Visibility: 6mi
Dew Point: 72°   Wind: 14mph
Humidity: 78%   Direction: 60°ENE
Pressure: 30"   Gusts: NA
Location:  27.16°S, 50.46°W
Report Text: SBNF 241500Z 06012KT 9999 SCT020 SCT045 26/22 Q1016
Loading
Personal Weather Stations






























Interactive Weather Map New forecast layout! Learn more

10-Day Weather Forecast

Advertisements
Track Severe Weather on mobile